sensor_id;sensor_type;location;lat;lon;timestamp;temperature;humidity
34877;DHT22;21086;44.780;17.194;2023-04-24T00:02:02;14.50;99.90
34877;DHT22;21086;44.780;17.194;2023-04-24T00:04:30;14.40;99.90
34877;DHT22;21086;44.780;17.194;2023-04-24T00:06:59;14.50;99.90
34877;DHT22;21086;44.780;17.194;2023-04-24T00:09:26;14.50;99.90
34877;DHT22;21086;44.780;17.194;2023-04-24T00:11:53;14.40;99.90
34877;DHT22;21086;44.780;17.194;2023-04-24T00:14:20;14.40;99.90
34877;DHT22;21086;44.780;17.194;2023-04-24T00:16:48;14.30;99.90
34877;DHT22;21086;44.780;17.194;2023-04-24T00:19:16;14.40;99.90
34877;DHT22;21086;44.780;17.194;2023-04-24T00:21:43;14.50;99.90
34877;DHT22;21086;44.780;17.194;2023-04-24T00:24:10;14.40;99.90
34877;DHT22;21086;44.780;17.194;2023-04-24T00:26:37;14.20;99.90
34877;DHT22;21086;44.780;17.194;2023-04-24T00:29:04;14.30;99.90
34877;DHT22;21086;44.780;17.194;2023-04-24T00:31:31;14.20;99.90
34877;DHT22;21086;44.780;17.194;2023-04-24T00:34:02;14.20;99.90
34877;DHT22;21086;44.780;17.194;2023-04-24T00:36:29;14.10;99.90
34877;DHT22;21086;44.780;17.194;2023-04-24T00:38:57;14.10;99.90
34877;DHT22;21086;44.780;17.194;2023-04-24T00:41:25;14.10;99.90
34877;DHT22;21086;44.780;17.194;2023-04-24T00:43:52;14.10;99.90
34877;DHT22;21086;44.780;17.194;2023-04-24T00:46:19;14.10;99.90
34877;DHT22;21086;44.780;17.194;2023-04-24T00:48:47;14.10;99.90
34877;DHT22;21086;44.780;17.194;2023-04-24T00:51:14;14.20;99.90
34877;DHT22;21086;44.780;17.194;2023-04-24T00:53:42;14.30;99.90
34877;DHT22;21086;44.780;17.194;2023-04-24T00:56:09;14.30;99.90
34877;DHT22;21086;44.780;17.194;2023-04-24T00:58:37;14.50;99.90
34877;DHT22;21086;44.780;17.194;2023-04-24T01:01:05;14.70;99.90
34877;DHT22;21086;44.780;17.194;2023-04-24T01:03:34;15.00;99.90
34877;DHT22;21086;44.780;17.194;2023-04-24T01:06:04;15.10;99.90
34877;DHT22;21086;44.780;17.194;2023-04-24T01:08:32;15.20;99.90
34877;DHT22;21086;44.780;17.194;2023-04-24T01:11:03;15.30;99.90
34877;DHT22;21086;44.780;17.194;2023-04-24T01:13:32;15.50;99.90
34877;DHT22;21086;44.780;17.194;2023-04-24T01:16:00;15.60;99.90
34877;DHT22;21086;44.780;17.194;2023-04-24T01:18:28;15.90;99.90
34877;DHT22;21086;44.780;17.194;2023-04-24T01:20:59;15.80;99.90
34877;DHT22;21086;44.780;17.194;2023-04-24T01:23:26;15.80;99.90
34877;DHT22;21086;44.780;17.194;2023-04-24T01:25:53;15.80;99.90
34877;DHT22;21086;44.780;17.194;2023-04-24T01:28:24;15.90;99.90
34877;DHT22;21086;44.780;17.194;2023-04-24T01:30:51;15.90;99.90
34877;DHT22;21086;44.780;17.194;2023-04-24T01:33:21;15.70;99.90
34877;DHT22;21086;44.780;17.194;2023-04-24T01:35:49;15.50;99.90
34877;DHT22;21086;44.780;17.194;2023-04-24T01:38:17;15.30;99.90
34877;DHT22;21086;44.780;17.194;2023-04-24T01:40:44;15.20;99.90
34877;DHT22;21086;44.780;17.194;2023-04-24T01:43:12;15.10;99.90
34877;DHT22;21086;44.780;17.194;2023-04-24T01:45:39;15.00;99.90
34877;DHT22;21086;44.780;17.194;2023-04-24T01:48:06;14.90;99.90
34877;DHT22;21086;44.780;17.194;2023-04-24T01:50:34;15.10;99.90
34877;DHT22;21086;44.780;17.194;2023-04-24T01:53:01;15.00;99.90
34877;DHT22;21086;44.780;17.194;2023-04-24T01:55:28;14.90;99.90
34877;DHT22;21086;44.780;17.194;2023-04-24T01:57:55;14.90;99.90
34877;DHT22;21086;44.780;17.194;2023-04-24T02:00:23;14.90;99.90
34877;DHT22;21086;44.780;17.194;2023-04-24T02:02:51;14.90;99.90
34877;DHT22;21086;44.780;17.194;2023-04-24T02:05:18;14.80;99.90
34877;DHT22;21086;44.780;17.194;2023-04-24T02:07:46;14.70;99.90
34877;DHT22;21086;44.780;17.194;2023-04-24T02:10:13;14.80;99.90
34877;DHT22;21086;44.780;17.194;2023-04-24T02:12:40;14.80;99.90
34877;DHT22;21086;44.780;17.194;2023-04-24T02:15:07;14.80;99.90
34877;DHT22;21086;44.780;17.194;2023-04-24T02:17:34;14.90;99.90
34877;DHT22;21086;44.780;17.194;2023-04-24T02:20:01;14.80;99.90
34877;DHT22;21086;44.780;17.194;2023-04-24T02:22:29;14.80;99.90
34877;DHT22;21086;44.780;17.194;2023-04-24T02:24:56;14.80;99.90
34877;DHT22;21086;44.780;17.194;2023-04-24T02:27:23;14.90;99.90
34877;DHT22;21086;44.780;17.194;2023-04-24T02:29:50;14.80;99.90
34877;DHT22;21086;44.780;17.194;2023-04-24T02:32:17;15.00;99.90
34877;DHT22;21086;44.780;17.194;2023-04-24T02:34:45;15.00;99.90
34877;DHT22;21086;44.780;17.194;2023-04-24T02:37:12;14.90;99.90
34877;DHT22;21086;44.780;17.194;2023-04-24T02:39:39;15.00;99.90
34877;DHT22;21086;44.780;17.194;2023-04-24T02:42:06;15.00;99.90
34877;DHT22;21086;44.780;17.194;2023-04-24T02:44:34;15.20;99.90
34877;DHT22;21086;44.780;17.194;2023-04-24T02:47:01;15.30;99.90
34877;DHT22;21086;44.780;17.194;2023-04-24T02:49:29;15.30;99.90
34877;DHT22;21086;44.780;17.194;2023-04-24T02:51:55;15.60;99.90
34877;DHT22;21086;44.780;17.194;2023-04-24T02:54:22;15.70;99.90
34877;DHT22;21086;44.780;17.194;2023-04-24T02:56:50;15.80;99.90
34877;DHT22;21086;44.780;17.194;2023-04-24T02:59:17;16.10;99.90
34877;DHT22;21086;44.780;17.194;2023-04-24T03:01:44;16.40;99.90
34877;DHT22;21086;44.780;17.194;2023-04-24T03:04:11;16.50;99.90
34877;DHT22;21086;44.780;17.194;2023-04-24T03:06:38;16.50;99.90
34877;DHT22;21086;44.780;17.194;2023-04-24T03:09:05;16.60;99.90
34877;DHT22;21086;44.780;17.194;2023-04-24T03:11:32;16.80;99.90
34877;DHT22;21086;44.780;17.194;2023-04-24T03:13:59;16.80;99.90
34877;DHT22;21086;44.780;17.194;2023-04-24T03:16:26;16.80;99.90
34877;DHT22;21086;44.780;17.194;2023-04-24T03:18:53;16.80;99.90
34877;DHT22;21086;44.780;17.194;2023-04-24T03:21:20;16.90;99.90
34877;DHT22;21086;44.780;17.194;2023-04-24T03:23:47;16.90;99.90
34877;DHT22;21086;44.780;17.194;2023-04-24T03:26:14;16.90;99.90
34877;DHT22;21086;44.780;17.194;2023-04-24T03:28:41;16.80;99.90
34877;DHT22;21086;44.780;17.194;2023-04-24T03:31:08;16.80;99.90
34877;DHT22;21086;44.780;17.194;2023-04-24T03:33:36;16.80;99.90
34877;DHT22;21086;44.780;17.194;2023-04-24T03:36:03;16.80;99.90
34877;DHT22;21086;44.780;17.194;2023-04-24T03:38:32;16.80;99.90
34877;DHT22;21086;44.780;17.194;2023-04-24T03:40:59;16.90;99.90
34877;DHT22;21086;44.780;17.194;2023-04-24T03:43:26;16.90;99.90
34877;DHT22;21086;44.780;17.194;2023-04-24T03:45:54;16.90;99.90
34877;DHT22;21086;44.780;17.194;2023-04-24T03:48:21;16.90;99.90
34877;DHT22;21086;44.780;17.194;2023-04-24T03:50:48;16.80;99.90
34877;DHT22;21086;44.780;17.194;2023-04-24T03:53:15;16.80;99.90
34877;DHT22;21086;44.780;17.194;2023-04-24T03:55:42;16.60;99.90
34877;DHT22;21086;44.780;17.194;2023-04-24T03:58:10;16.50;99.90
34877;DHT22;21086;44.780;17.194;2023-04-24T04:00:37;16.30;99.90
34877;DHT22;21086;44.780;17.194;2023-04-24T04:03:06;16.30;99.90
34877;DHT22;21086;44.780;17.194;2023-04-24T04:05:34;16.20;99.90
34877;DHT22;21086;44.780;17.194;2023-04-24T04:08:01;16.30;99.90
34877;DHT22;21086;44.780;17.194;2023-04-24T04:10:28;16.40;99.90
34877;DHT22;21086;44.780;17.194;2023-04-24T04:12:55;16.30;99.90
34877;DHT22;21086;44.780;17.194;2023-04-24T04:15:22;16.20;99.90
34877;DHT22;21086;44.780;17.194;2023-04-24T04:17:49;16.20;99.90
34877;DHT22;21086;44.780;17.194;2023-04-24T04:20:17;16.10;99.90
34877;DHT22;21086;44.780;17.194;2023-04-24T04:22:44;16.00;99.90
34877;DHT22;21086;44.780;17.194;2023-04-24T04:25:11;15.90;99.90
34877;DHT22;21086;44.780;17.194;2023-04-24T04:27:38;15.80;99.90
34877;DHT22;21086;44.780;17.194;2023-04-24T04:30:05;15.90;99.90
34877;DHT22;21086;44.780;17.194;2023-04-24T04:32:33;15.90;99.90
34877;DHT22;21086;44.780;17.194;2023-04-24T04:35:01;15.90;99.90
34877;DHT22;21086;44.780;17.194;2023-04-24T04:37:34;16.00;99.90
34877;DHT22;21086;44.780;17.194;2023-04-24T04:40:02;15.90;99.90
34877;DHT22;21086;44.780;17.194;2023-04-24T04:42:47;16.00;99.90
34877;DHT22;21086;44.780;17.194;2023-04-24T04:45:14;16.10;99.90
34877;DHT22;21086;44.780;17.194;2023-04-24T04:47:43;16.10;99.90
34877;DHT22;21086;44.780;17.194;2023-04-24T04:50:11;16.10;99.90
34877;DHT22;21086;44.780;17.194;2023-04-24T04:52:38;16.00;99.90
34877;DHT22;21086;44.780;17.194;2023-04-24T04:55:06;15.90;99.90
34877;DHT22;21086;44.780;17.194;2023-04-24T04:57:33;15.90;99.90
34877;DHT22;21086;44.780;17.194;2023-04-24T05:00:00;15.80;99.90
34877;DHT22;21086;44.780;17.194;2023-04-24T05:02:28;15.60;99.90
34877;DHT22;21086;44.780;17.194;2023-04-24T05:04:55;15.70;99.90
34877;DHT22;21086;44.780;17.194;2023-04-24T05:07:22;15.70;99.90
34877;DHT22;21086;44.780;17.194;2023-04-24T05:09:49;15.70;99.90
34877;DHT22;21086;44.780;17.194;2023-04-24T05:12:18;15.60;99.90
34877;DHT22;21086;44.780;17.194;2023-04-24T05:14:45;15.60;99.90
34877;DHT22;21086;44.780;17.194;2023-04-24T05:17:12;15.60;99.90
34877;DHT22;21086;44.780;17.194;2023-04-24T05:19:39;15.60;99.90
34877;DHT22;21086;44.780;17.194;2023-04-24T05:22:06;15.50;99.90
34877;DHT22;21086;44.780;17.194;2023-04-24T05:24:34;15.50;99.90
34877;DHT22;21086;44.780;17.194;2023-04-24T05:27:04;15.50;99.90
34877;DHT22;21086;44.780;17.194;2023-04-24T05:29:31;15.40;99.90
34877;DHT22;21086;44.780;17.194;2023-04-24T05:32:00;15.40;99.90
34877;DHT22;21086;44.780;17.194;2023-04-24T05:34:27;15.50;99.90
34877;DHT22;21086;44.780;17.194;2023-04-24T05:36:54;15.50;99.90
34877;DHT22;21086;44.780;17.194;2023-04-24T05:39:21;15.40;99.90
34877;DHT22;21086;44.780;17.194;2023-04-24T05:41:48;15.40;99.90
34877;DHT22;21086;44.780;17.194;2023-04-24T05:44:15;15.40;99.90
34877;DHT22;21086;44.780;17.194;2023-04-24T05:46:42;15.30;99.90
34877;DHT22;21086;44.780;17.194;2023-04-24T05:49:09;15.40;99.90
34877;DHT22;21086;44.780;17.194;2023-04-24T05:51:36;15.40;99.90
34877;DHT22;21086;44.780;17.194;2023-04-24T05:54:03;15.30;99.90
34877;DHT22;21086;44.780;17.194;2023-04-24T05:56:30;15.30;99.90
34877;DHT22;21086;44.780;17.194;2023-04-24T05:58:57;15.40;99.90
34877;DHT22;21086;44.780;17.194;2023-04-24T06:01:25;15.40;99.90
34877;DHT22;21086;44.780;17.194;2023-04-24T06:03:52;15.40;99.90
34877;DHT22;21086;44.780;17.194;2023-04-24T06:09:03;15.40;99.90
34877;DHT22;21086;44.780;17.194;2023-04-24T06:11:30;15.40;99.90
34877;DHT22;21086;44.780;17.194;2023-04-24T06:13:57;15.50;99.90
34877;DHT22;21086;44.780;17.194;2023-04-24T06:21:51;15.60;99.90
34877;DHT22;21086;44.780;17.194;2023-04-24T06:24:18;15.20;99.90
34877;DHT22;21086;44.780;17.194;2023-04-24T06:26:45;14.70;99.90
34877;DHT22;21086;44.780;17.194;2023-04-24T06:29:13;15.70;99.90
34877;DHT22;21086;44.780;17.194;2023-04-24T06:31:40;15.70;99.90
34877;DHT22;21086;44.780;17.194;2023-04-24T06:34:07;15.80;99.90
34877;DHT22;21086;44.780;17.194;2023-04-24T06:36:34;15.80;99.90
34877;DHT22;21086;44.780;17.194;2023-04-24T06:39:02;15.90;99.90
34877;DHT22;21086;44.780;17.194;2023-04-24T06:41:29;16.00;99.90
34877;DHT22;21086;44.780;17.194;2023-04-24T06:43:56;16.10;99.90
34877;DHT22;21086;44.780;17.194;2023-04-24T06:46:23;16.10;99.90
34877;DHT22;21086;44.780;17.194;2023-04-24T06:48:53;16.30;99.90
34877;DHT22;21086;44.780;17.194;2023-04-24T06:51:24;16.40;99.90
34877;DHT22;21086;44.780;17.194;2023-04-24T06:53:53;16.40;99.90
34877;DHT22;21086;44.780;17.194;2023-04-24T06:56:20;16.50;99.90
34877;DHT22;21086;44.780;17.194;2023-04-24T06:58:47;16.60;99.90
34877;DHT22;21086;44.780;17.194;2023-04-24T07:01:14;16.70;99.90
34877;DHT22;21086;44.780;17.194;2023-04-24T07:03:41;16.70;99.90
34877;DHT22;21086;44.780;17.194;2023-04-24T07:06:09;16.80;99.90
34877;DHT22;21086;44.780;17.194;2023-04-24T07:08:37;17.00;99.90
34877;DHT22;21086;44.780;17.194;2023-04-24T07:11:05;17.30;99.90
34877;DHT22;21086;44.780;17.194;2023-04-24T07:13:32;17.40;99.90
34877;DHT22;21086;44.780;17.194;2023-04-24T07:15:59;17.50;99.90
34877;DHT22;21086;44.780;17.194;2023-04-24T07:18:26;17.50;99.90
34877;DHT22;21086;44.780;17.194;2023-04-24T07:20:53;17.50;99.90
34877;DHT22;21086;44.780;17.194;2023-04-24T07:23:20;17.70;99.90
34877;DHT22;21086;44.780;17.194;2023-04-24T07:25:48;17.70;99.90
34877;DHT22;21086;44.780;17.194;2023-04-24T07:28:15;17.60;99.90
34877;DHT22;21086;44.780;17.194;2023-04-24T07:30:44;17.40;99.90
34877;DHT22;21086;44.780;17.194;2023-04-24T07:33:11;17.40;99.90
34877;DHT22;21086;44.780;17.194;2023-04-24T07:35:40;17.30;99.90
34877;DHT22;21086;44.780;17.194;2023-04-24T07:38:07;17.30;99.90
34877;DHT22;21086;44.780;17.194;2023-04-24T07:40:34;17.30;99.90
34877;DHT22;21086;44.780;17.194;2023-04-24T07:43:01;17.50;99.90
34877;DHT22;21086;44.780;17.194;2023-04-24T07:45:28;17.60;99.90
34877;DHT22;21086;44.780;17.194;2023-04-24T07:47:55;17.60;99.90
34877;DHT22;21086;44.780;17.194;2023-04-24T07:50:22;17.50;99.90
34877;DHT22;21086;44.780;17.194;2023-04-24T07:52:49;17.40;99.90
34877;DHT22;21086;44.780;17.194;2023-04-24T07:55:17;17.30;99.90
34877;DHT22;21086;44.780;17.194;2023-04-24T07:57:47;17.20;99.90
34877;DHT22;21086;44.780;17.194;2023-04-24T08:00:14;17.10;99.90
34877;DHT22;21086;44.780;17.194;2023-04-24T08:02:41;17.00;99.90
34877;DHT22;21086;44.780;17.194;2023-04-24T08:05:09;16.90;99.90
34877;DHT22;21086;44.780;17.194;2023-04-24T08:07:37;17.10;99.90
34877;DHT22;21086;44.780;17.194;2023-04-24T08:10:05;17.20;99.90
34877;DHT22;21086;44.780;17.194;2023-04-24T08:12:32;17.30;99.90
34877;DHT22;21086;44.780;17.194;2023-04-24T08:14:59;17.30;99.90
34877;DHT22;21086;44.780;17.194;2023-04-24T08:17:27;17.10;99.90
34877;DHT22;21086;44.780;17.194;2023-04-24T08:22:40;17.20;99.90
34877;DHT22;21086;44.780;17.194;2023-04-24T08:25:08;17.30;99.90
34877;DHT22;21086;44.780;17.194;2023-04-24T08:30:11;17.20;99.90
34877;DHT22;21086;44.780;17.194;2023-04-24T08:32:39;17.20;99.90
34877;DHT22;21086;44.780;17.194;2023-04-24T08:35:06;16.70;99.90
34877;DHT22;21086;44.780;17.194;2023-04-24T08:37:36;17.70;99.90
34877;DHT22;21086;44.780;17.194;2023-04-24T08:40:11;17.60;99.90
34877;DHT22;21086;44.780;17.194;2023-04-24T08:42:41;17.60;99.90
34877;DHT22;21086;44.780;17.194;2023-04-24T08:45:10;17.60;99.90
34877;DHT22;21086;44.780;17.194;2023-04-24T08:47:39;17.70;99.90
34877;DHT22;21086;44.780;17.194;2023-04-24T08:50:08;18.00;99.90
34877;DHT22;21086;44.780;17.194;2023-04-24T08:52:36;18.30;99.90
34877;DHT22;21086;44.780;17.194;2023-04-24T09:00:34;18.60;99.90
34877;DHT22;21086;44.780;17.194;2023-04-24T09:03:02;19.40;99.90
34877;DHT22;21086;44.780;17.194;2023-04-24T09:05:32;19.00;99.90
34877;DHT22;21086;44.780;17.194;2023-04-24T09:08:02;18.40;99.90
34877;DHT22;21086;44.780;17.194;2023-04-24T09:10:32;19.50;99.90
34877;DHT22;21086;44.780;17.194;2023-04-24T09:13:01;19.60;99.90
34877;DHT22;21086;44.780;17.194;2023-04-24T09:15:29;19.60;99.90
34877;DHT22;21086;44.780;17.194;2023-04-24T09:17:56;19.60;99.90
34877;DHT22;21086;44.780;17.194;2023-04-24T09:20:23;19.70;99.90
34877;DHT22;21086;44.780;17.194;2023-04-24T09:22:54;19.90;99.90
34877;DHT22;21086;44.780;17.194;2023-04-24T09:25:22;19.90;99.90
34877;DHT22;21086;44.780;17.194;2023-04-24T09:27:53;20.10;99.90
34877;DHT22;21086;44.780;17.194;2023-04-24T09:30:21;20.10;99.90
34877;DHT22;21086;44.780;17.194;2023-04-24T09:32:49;20.00;99.90
34877;DHT22;21086;44.780;17.194;2023-04-24T09:35:16;20.10;99.90
34877;DHT22;21086;44.780;17.194;2023-04-24T09:37:46;20.20;99.90
34877;DHT22;21086;44.780;17.194;2023-04-24T09:40:17;20.30;99.90
34877;DHT22;21086;44.780;17.194;2023-04-24T09:42:46;20.40;99.90
34877;DHT22;21086;44.780;17.194;2023-04-24T09:45:13;20.10;99.90
34877;DHT22;21086;44.780;17.194;2023-04-24T09:47:42;20.10;99.90
34877;DHT22;21086;44.780;17.194;2023-04-24T09:50:14;20.10;99.90
34877;DHT22;21086;44.780;17.194;2023-04-24T09:53:07;20.20;99.90
34877;DHT22;21086;44.780;17.194;2023-04-24T09:55:45;20.40;99.90
34877;DHT22;21086;44.780;17.194;2023-04-24T09:58:12;20.70;99.90
34877;DHT22;21086;44.780;17.194;2023-04-24T10:00:39;21.00;99.90
34877;DHT22;21086;44.780;17.194;2023-04-24T10:03:07;21.30;99.90
34877;DHT22;21086;44.780;17.194;2023-04-24T10:05:36;21.30;99.90
34877;DHT22;21086;44.780;17.194;2023-04-24T10:08:06;21.30;99.90
34877;DHT22;21086;44.780;17.194;2023-04-24T10:10:38;21.30;99.90
34877;DHT22;21086;44.780;17.194;2023-04-24T10:13:07;21.50;99.90
34877;DHT22;21086;44.780;17.194;2023-04-24T10:15:40;21.50;99.90
34877;DHT22;21086;44.780;17.194;2023-04-24T10:18:09;21.40;99.90
34877;DHT22;21086;44.780;17.194;2023-04-24T10:20:39;21.50;99.90
34877;DHT22;21086;44.780;17.194;2023-04-24T10:23:06;21.80;99.90
34877;DHT22;21086;44.780;17.194;2023-04-24T10:25:35;22.00;99.90
34877;DHT22;21086;44.780;17.194;2023-04-24T10:28:04;21.80;99.90
34877;DHT22;21086;44.780;17.194;2023-04-24T10:30:34;21.70;99.90
34877;DHT22;21086;44.780;17.194;2023-04-24T10:33:06;21.70;99.90
34877;DHT22;21086;44.780;17.194;2023-04-24T10:35:38;22.00;99.90
34877;DHT22;21086;44.780;17.194;2023-04-24T10:38:12;22.20;99.90
34877;DHT22;21086;44.780;17.194;2023-04-24T10:40:41;22.20;99.90
34877;DHT22;21086;44.780;17.194;2023-04-24T10:43:09;22.10;99.90
34877;DHT22;21086;44.780;17.194;2023-04-24T10:45:39;22.50;99.90
34877;DHT22;21086;44.780;17.194;2023-04-24T10:48:09;23.20;99.90
34877;DHT22;21086;44.780;17.194;2023-04-24T10:50:46;23.40;99.90
34877;DHT22;21086;44.780;17.194;2023-04-24T10:53:21;23.40;99.90
34877;DHT22;21086;44.780;17.194;2023-04-24T10:55:51;23.70;99.90
34877;DHT22;21086;44.780;17.194;2023-04-24T10:58:23;23.80;99.90
34877;DHT22;21086;44.780;17.194;2023-04-24T11:00:58;23.80;99.90
34877;DHT22;21086;44.780;17.194;2023-04-24T11:03:31;23.50;99.90
34877;DHT22;21086;44.780;17.194;2023-04-24T11:06:07;23.30;99.90
34877;DHT22;21086;44.780;17.194;2023-04-24T11:08:45;23.00;99.90
34877;DHT22;21086;44.780;17.194;2023-04-24T11:11:15;23.10;99.90
34877;DHT22;21086;44.780;17.194;2023-04-24T11:19:05;21.70;99.90
34877;DHT22;21086;44.780;17.194;2023-04-24T11:21:57;21.40;99.90
34877;DHT22;21086;44.780;17.194;2023-04-24T11:27:16;20.80;99.90
34877;DHT22;21086;44.780;17.194;2023-04-24T11:29:47;20.40;99.90
34877;DHT22;21086;44.780;17.194;2023-04-24T11:35:02;19.80;99.90
34877;DHT22;21086;44.780;17.194;2023-04-24T11:37:35;19.60;99.90
34877;DHT22;21086;44.780;17.194;2023-04-24T11:40:04;19.30;99.90
34877;DHT22;21086;44.780;17.194;2023-04-24T11:42:36;19.20;99.90
34877;DHT22;21086;44.780;17.194;2023-04-24T11:45:11;19.20;99.90
34877;DHT22;21086;44.780;17.194;2023-04-24T11:47:39;19.30;99.90
34877;DHT22;21086;44.780;17.194;2023-04-24T11:50:09;19.10;99.90
34877;DHT22;21086;44.780;17.194;2023-04-24T11:58:07;18.80;99.90
34877;DHT22;21086;44.780;17.194;2023-04-24T12:00:34;18.70;99.90
34877;DHT22;21086;44.780;17.194;2023-04-24T12:03:08;18.50;99.90
34877;DHT22;21086;44.780;17.194;2023-04-24T12:05:37;18.80;99.90
34877;DHT22;21086;44.780;17.194;2023-04-24T12:08:06;18.80;99.90
34877;DHT22;21086;44.780;17.194;2023-04-24T12:10:33;18.70;99.90
34877;DHT22;21086;44.780;17.194;2023-04-24T12:13:01;18.90;99.90
34877;DHT22;21086;44.780;17.194;2023-04-24T12:15:29;19.20;99.90
34877;DHT22;21086;44.780;17.194;2023-04-24T12:17:56;19.60;99.90
34877;DHT22;21086;44.780;17.194;2023-04-24T12:20:28;19.90;99.90
34877;DHT22;21086;44.780;17.194;2023-04-24T12:22:57;20.30;99.90
34877;DHT22;21086;44.780;17.194;2023-04-24T12:25:29;20.50;99.90
34877;DHT22;21086;44.780;17.194;2023-04-24T12:30:39;20.50;99.90
34877;DHT22;21086;44.780;17.194;2023-04-24T12:33:06;20.60;99.90
34877;DHT22;21086;44.780;17.194;2023-04-24T12:35:33;20.60;99.90
34877;DHT22;21086;44.780;17.194;2023-04-24T12:38:06;20.70;99.90
34877;DHT22;21086;44.780;17.194;2023-04-24T12:40:35;21.00;99.90
34877;DHT22;21086;44.780;17.194;2023-04-24T12:43:13;21.10;99.90
34877;DHT22;21086;44.780;17.194;2023-04-24T12:45:41;21.40;99.90
34877;DHT22;21086;44.780;17.194;2023-04-24T12:48:08;21.70;99.90
34877;DHT22;21086;44.780;17.194;2023-04-24T12:50:35;21.80;99.90
34877;DHT22;21086;44.780;17.194;2023-04-24T12:53:02;21.80;99.90
34877;DHT22;21086;44.780;17.194;2023-04-24T12:55:29;21.80;99.90
34877;DHT22;21086;44.780;17.194;2023-04-24T12:57:56;21.70;99.90
34877;DHT22;21086;44.780;17.194;2023-04-24T13:00:24;21.60;99.90
34877;DHT22;21086;44.780;17.194;2023-04-24T13:02:51;21.50;99.90
34877;DHT22;21086;44.780;17.194;2023-04-24T13:05:20;21.30;99.90
34877;DHT22;21086;44.780;17.194;2023-04-24T13:07:50;21.10;99.90
34877;DHT22;21086;44.780;17.194;2023-04-24T13:10:17;21.00;99.90
34877;DHT22;21086;44.780;17.194;2023-04-24T13:12:45;21.00;99.90
34877;DHT22;21086;44.780;17.194;2023-04-24T13:15:13;20.90;99.90
34877;DHT22;21086;44.780;17.194;2023-04-24T13:17:40;20.50;99.90
34877;DHT22;21086;44.780;17.194;2023-04-24T13:20:07;20.30;99.90
34877;DHT22;21086;44.780;17.194;2023-04-24T13:22:35;20.10;99.90
34877;DHT22;21086;44.780;17.194;2023-04-24T13:25:03;19.80;99.90
34877;DHT22;21086;44.780;17.194;2023-04-24T13:27:30;19.60;99.90
34877;DHT22;21086;44.780;17.194;2023-04-24T13:29:57;19.40;99.90
34877;DHT22;21086;44.780;17.194;2023-04-24T13:32:25;19.30;99.90
34877;DHT22;21086;44.780;17.194;2023-04-24T13:34:52;19.10;99.90
34877;DHT22;21086;44.780;17.194;2023-04-24T13:37:19;19.10;99.90
34877;DHT22;21086;44.780;17.194;2023-04-24T13:39:46;19.00;99.90
34877;DHT22;21086;44.780;17.194;2023-04-24T13:42:13;19.00;99.90
34877;DHT22;21086;44.780;17.194;2023-04-24T13:44:40;19.00;99.90
34877;DHT22;21086;44.780;17.194;2023-04-24T13:47:07;18.90;99.90
34877;DHT22;21086;44.780;17.194;2023-04-24T13:49:34;19.00;99.90
34877;DHT22;21086;44.780;17.194;2023-04-24T13:52:02;19.10;99.90
34877;DHT22;21086;44.780;17.194;2023-04-24T13:54:29;19.10;99.90
34877;DHT22;21086;44.780;17.194;2023-04-24T13:56:58;19.00;99.90
34877;DHT22;21086;44.780;17.194;2023-04-24T13:59:25;19.00;99.90
34877;DHT22;21086;44.780;17.194;2023-04-24T14:01:53;19.00;99.90
34877;DHT22;21086;44.780;17.194;2023-04-24T14:04:20;18.90;99.90
34877;DHT22;21086;44.780;17.194;2023-04-24T14:06:48;18.70;99.90
34877;DHT22;21086;44.780;17.194;2023-04-24T14:09:15;18.60;99.90
34877;DHT22;21086;44.780;17.194;2023-04-24T14:11:42;18.60;99.90
34877;DHT22;21086;44.780;17.194;2023-04-24T14:14:09;18.60;99.90
34877;DHT22;21086;44.780;17.194;2023-04-24T14:16:36;18.50;99.90
34877;DHT22;21086;44.780;17.194;2023-04-24T14:19:03;18.40;99.90
34877;DHT22;21086;44.780;17.194;2023-04-24T14:21:32;18.50;99.90
34877;DHT22;21086;44.780;17.194;2023-04-24T14:23:59;18.50;99.90
34877;DHT22;21086;44.780;17.194;2023-04-24T14:26:26;18.40;99.90
34877;DHT22;21086;44.780;17.194;2023-04-24T14:28:53;18.40;99.90
34877;DHT22;21086;44.780;17.194;2023-04-24T14:31:39;18.50;99.90
34877;DHT22;21086;44.780;17.194;2023-04-24T14:34:07;18.60;99.90
34877;DHT22;21086;44.780;17.194;2023-04-24T14:36:34;18.50;99.90
34877;DHT22;21086;44.780;17.194;2023-04-24T14:39:01;18.50;99.90
34877;DHT22;21086;44.780;17.194;2023-04-24T14:41:33;18.40;99.90
34877;DHT22;21086;44.780;17.194;2023-04-24T14:44:03;18.30;99.90
34877;DHT22;21086;44.780;17.194;2023-04-24T14:54:46;18.30;99.90
34877;DHT22;21086;44.780;17.194;2023-04-24T14:57:13;19.00;99.90
34877;DHT22;21086;44.780;17.194;2023-04-24T14:59:42;18.20;99.90
34877;DHT22;21086;44.780;17.194;2023-04-24T15:02:09;17.90;99.90
34877;DHT22;21086;44.780;17.194;2023-04-24T15:04:43;17.60;99.90
34877;DHT22;21086;44.780;17.194;2023-04-24T15:07:19;17.10;99.90
34877;DHT22;21086;44.780;17.194;2023-04-24T15:09:47;17.00;99.90
34877;DHT22;21086;44.780;17.194;2023-04-24T15:12:14;16.90;99.90
34877;DHT22;21086;44.780;17.194;2023-04-24T15:17:17;17.00;99.90
34877;DHT22;21086;44.780;17.194;2023-04-24T15:19:44;15.40;99.90
34877;DHT22;21086;44.780;17.194;2023-04-24T15:22:11;16.20;99.90
34877;DHT22;21086;44.780;17.194;2023-04-24T15:24:38;16.60;99.90
34877;DHT22;21086;44.780;17.194;2023-04-24T15:29:41;16.20;99.90
34877;DHT22;21086;44.780;17.194;2023-04-24T15:34:44;15.70;99.90
34877;DHT22;21086;44.780;17.194;2023-04-24T15:37:11;15.60;99.90
34877;DHT22;21086;44.780;17.194;2023-04-24T15:39:39;15.50;99.90
34877;DHT22;21086;44.780;17.194;2023-04-24T15:42:06;15.40;99.90
34877;DHT22;21086;44.780;17.194;2023-04-24T15:44:33;15.50;99.90
34877;DHT22;21086;44.780;17.194;2023-04-24T15:47:00;15.50;99.90
34877;DHT22;21086;44.780;17.194;2023-04-24T15:49:28;15.50;99.90
34877;DHT22;21086;44.780;17.194;2023-04-24T15:51:55;15.50;99.90
34877;DHT22;21086;44.780;17.194;2023-04-24T15:54:22;15.50;99.90
34877;DHT22;21086;44.780;17.194;2023-04-24T15:56:50;15.30;99.90
34877;DHT22;21086;44.780;17.194;2023-04-24T15:59:17;15.20;99.90
34877;DHT22;21086;44.780;17.194;2023-04-24T16:01:44;15.20;99.90
34877;DHT22;21086;44.780;17.194;2023-04-24T16:04:12;15.20;99.90
34877;DHT22;21086;44.780;17.194;2023-04-24T16:06:40;15.10;99.90
34877;DHT22;21086;44.780;17.194;2023-04-24T16:09:09;15.10;99.90
34877;DHT22;21086;44.780;17.194;2023-04-24T16:11:36;15.00;99.90
34877;DHT22;21086;44.780;17.194;2023-04-24T16:14:05;15.00;99.90
34877;DHT22;21086;44.780;17.194;2023-04-24T16:16:34;15.10;99.90